createdAt,value
2023-04-17T00:00:48.557Z,14.10
2023-04-17T00:03:15.158Z,14.10
2023-04-17T00:05:41.726Z,14.10
2023-04-17T00:08:08.206Z,14.00
2023-04-17T00:10:34.666Z,14.00
2023-04-17T00:13:01.133Z,14.00
2023-04-17T00:15:27.612Z,14.00
2023-04-17T00:17:54.103Z,14.10
2023-04-17T00:20:20.574Z,14.00
2023-04-17T00:22:47.007Z,14.00
2023-04-17T00:25:13.495Z,14.00
2023-04-17T00:27:39.978Z,14.10
2023-04-17T00:30:06.435Z,14.00
2023-04-17T00:32:37.757Z,14.00
2023-04-17T00:35:04.288Z,14.00
2023-04-17T00:37:30.760Z,14.00
2023-04-17T00:39:57.236Z,14.00
2023-04-17T00:42:23.731Z,14.00
2023-04-17T00:44:50.196Z,14.00
2023-04-17T00:47:16.671Z,14.10
2023-04-17T00:49:43.139Z,14.00
2023-04-17T00:52:09.616Z,14.10
2023-04-17T00:54:36.098Z,14.00
2023-04-17T00:57:02.566Z,14.00
2023-04-17T00:59:29.039Z,14.00
2023-04-17T01:01:55.563Z,14.00
2023-04-17T01:04:22.137Z,14.00
2023-04-17T01:06:48.732Z,14.00
2023-04-17T01:09:15.216Z,14.00
2023-04-17T01:11:41.723Z,14.00
2023-04-17T01:14:08.205Z,14.00
2023-04-17T01:16:34.694Z,14.00
2023-04-17T01:19:01.175Z,14.00
2023-04-17T01:21:27.678Z,14.00
2023-04-17T01:23:54.294Z,14.00
2023-04-17T01:26:20.763Z,14.00
2023-04-17T01:28:47.245Z,14.00
2023-04-17T01:31:13.751Z,14.00
2023-04-17T01:33:40.262Z,14.00
2023-04-17T01:36:06.722Z,14.00
2023-04-17T01:38:33.224Z,14.00
2023-04-17T01:40:59.695Z,14.00
2023-04-17T01:43:26.195Z,14.00
2023-04-17T01:45:52.719Z,14.00
2023-04-17T01:48:19.249Z,14.00
2023-04-17T01:50:45.732Z,14.00
2023-04-17T01:53:12.214Z,14.00
2023-04-17T01:55:38.676Z,14.00
2023-04-17T01:58:05.218Z,14.00
2023-04-17T02:00:31.681Z,14.00
2023-04-17T02:02:58.413Z,14.00
2023-04-17T02:05:24.954Z,14.00
2023-04-17T02:07:51.463Z,14.00
2023-04-17T02:10:20.754Z,14.00
2023-04-17T02:12:47.229Z,14.00
2023-04-17T02:15:13.714Z,14.00
2023-04-17T02:17:43.937Z,14.00
2023-04-17T02:20:10.457Z,14.00
2023-04-17T02:22:36.916Z,14.00
2023-04-17T02:25:03.398Z,14.00
2023-04-17T02:27:29.872Z,14.00
2023-04-17T02:29:56.336Z,13.90
2023-04-17T02:32:22.845Z,14.00
2023-04-17T02:34:49.819Z,14.00
2023-04-17T02:37:16.308Z,14.00
2023-04-17T02:39:42.784Z,13.90
2023-04-17T02:42:09.245Z,13.90
2023-04-17T02:44:35.716Z,14.00
2023-04-17T02:47:02.359Z,13.90
2023-04-17T02:49:28.945Z,13.90
2023-04-17T02:51:55.460Z,13.90
2023-04-17T02:54:21.934Z,13.90
2023-04-17T02:56:48.394Z,13.90
2023-04-17T02:59:14.877Z,13.90
2023-04-17T03:01:41.369Z,13.90
2023-04-17T03:04:07.896Z,13.90
2023-04-17T03:06:34.375Z,13.90
2023-04-17T03:09:00.853Z,13.90
2023-04-17T03:11:27.311Z,13.90
2023-04-17T03:13:53.779Z,13.90
2023-04-17T03:16:20.246Z,14.00
2023-04-17T03:18:46.773Z,14.00
2023-04-17T03:21:13.265Z,13.90
2023-04-17T03:23:39.750Z,13.90
2023-04-17T03:26:06.230Z,14.00
2023-04-17T03:28:32.711Z,13.90
2023-04-17T03:30:59.222Z,13.90
2023-04-17T03:33:25.684Z,14.00
2023-04-17T03:35:52.160Z,14.00
2023-04-17T03:38:18.627Z,13.90
2023-04-17T03:40:45.107Z,13.90
2023-04-17T03:43:11.574Z,13.90
2023-04-17T03:45:38.092Z,13.90
2023-04-17T03:48:04.612Z,13.90
2023-04-17T03:50:31.111Z,13.90
2023-04-17T03:52:57.613Z,13.90
2023-04-17T03:55:24.079Z,13.90
2023-04-17T03:57:50.549Z,13.90
2023-04-17T04:00:17.013Z,13.90
2023-04-17T04:02:43.617Z,13.90
2023-04-17T04:05:10.246Z,13.90
2023-04-17T04:07:36.819Z,13.90
2023-04-17T04:10:03.277Z,13.90
2023-04-17T04:12:29.744Z,13.90
2023-04-17T04:14:56.218Z,13.90
2023-04-17T04:17:22.718Z,13.90
2023-04-17T04:19:49.186Z,13.90
2023-04-17T04:22:15.654Z,13.90
2023-04-17T04:24:42.126Z,13.90
2023-04-17T04:27:09.111Z,13.90
2023-04-17T04:29:36.537Z,13.90
2023-04-17T04:32:02.998Z,13.90
2023-04-17T04:34:29.485Z,13.90
2023-04-17T04:36:55.953Z,13.90
2023-04-17T04:39:22.418Z,13.90
2023-04-17T04:41:48.888Z,13.90
2023-04-17T04:44:15.369Z,13.90
2023-04-17T04:46:41.919Z,13.90
2023-04-17T04:49:08.429Z,13.90
2023-04-17T04:51:34.904Z,13.90
2023-04-17T04:54:01.370Z,13.90
2023-04-17T04:56:27.847Z,13.90
2023-04-17T04:58:54.296Z,13.80
2023-04-17T05:01:20.832Z,13.80
2023-04-17T05:03:47.549Z,13.80
2023-04-17T05:06:14.097Z,13.80
2023-04-17T05:08:40.561Z,13.80
2023-04-17T05:11:07.054Z,13.80
2023-04-17T05:13:33.557Z,13.80
2023-04-17T05:16:01.610Z,13.80
2023-04-17T05:18:28.456Z,13.80
2023-04-17T05:20:54.939Z,13.80
2023-04-17T05:23:21.415Z,13.80
2023-04-17T05:25:47.876Z,13.80
2023-04-17T05:28:15.542Z,13.80
2023-04-17T05:30:43.374Z,13.80
2023-04-17T05:33:09.889Z,13.80
2023-04-17T05:35:36.413Z,13.80
2023-04-17T05:38:02.899Z,13.70
2023-04-17T05:40:29.377Z,13.80
2023-04-17T05:42:55.859Z,13.80
2023-04-17T05:45:24.924Z,13.80
2023-04-17T05:47:52.126Z,13.80
2023-04-17T05:50:18.646Z,13.80
2023-04-17T05:52:45.423Z,13.80
2023-04-17T05:55:11.917Z,13.80
2023-04-17T05:57:38.400Z,13.80
2023-04-17T06:00:04.849Z,13.80
2023-04-17T06:02:31.462Z,13.80
2023-04-17T06:04:58.285Z,13.80
2023-04-17T06:07:25.030Z,13.80
2023-04-17T06:09:51.506Z,13.70
2023-04-17T06:12:17.970Z,13.80
2023-04-17T06:14:44.430Z,13.80
2023-04-17T06:17:10.970Z,13.80
2023-04-17T06:19:37.467Z,13.80
2023-04-17T06:22:08.034Z,13.80
2023-04-17T06:24:34.520Z,13.80
2023-04-17T06:27:01.003Z,13.80
2023-04-17T06:29:27.472Z,13.80
2023-04-17T06:31:53.942Z,13.80
2023-04-17T06:34:20.423Z,13.80
2023-04-17T06:36:46.888Z,13.80
2023-04-17T06:39:13.542Z,13.80
2023-04-17T06:41:40.164Z,13.80
2023-04-17T06:44:06.616Z,13.80
2023-04-17T06:46:33.203Z,13.80
2023-04-17T06:48:59.682Z,13.80
2023-04-17T06:51:26.153Z,13.80
2023-04-17T06:53:52.630Z,13.80
2023-04-17T06:56:19.121Z,13.70
2023-04-17T06:58:45.640Z,13.80
2023-04-17T07:01:14.108Z,13.80
2023-04-17T07:03:41.078Z,13.70
2023-04-17T07:06:07.681Z,13.70
2023-04-17T07:08:34.175Z,13.70
2023-04-17T07:11:00.662Z,13.70
2023-04-17T07:13:27.131Z,13.70
2023-04-17T07:15:53.706Z,13.70
2023-04-17T07:18:20.250Z,13.70
2023-04-17T07:20:46.708Z,13.70
2023-04-17T07:23:13.199Z,13.70
2023-04-17T07:25:39.655Z,13.70
2023-04-17T07:28:08.124Z,13.70
2023-04-17T07:30:34.598Z,13.70
2023-04-17T07:33:01.164Z,13.80
2023-04-17T07:35:27.643Z,13.70
2023-04-17T07:37:54.114Z,13.80
2023-04-17T07:40:20.608Z,13.70
2023-04-17T07:42:47.085Z,13.80
2023-04-17T07:45:13.580Z,13.80
2023-04-17T07:47:40.079Z,13.70
2023-04-17T07:50:06.569Z,13.80
2023-04-17T07:52:33.043Z,13.70
2023-04-17T07:54:59.519Z,13.80
2023-04-17T07:57:26.006Z,13.80
2023-04-17T07:59:52.467Z,13.70
2023-04-17T08:02:20.599Z,13.70
2023-04-17T08:04:50.165Z,13.80
2023-04-17T08:07:16.721Z,13.70
2023-04-17T08:09:44.016Z,13.80
2023-04-17T08:12:10.653Z,13.70
2023-04-17T08:14:37.141Z,13.80
2023-04-17T08:17:03.687Z,13.80
2023-04-17T08:19:30.159Z,13.80
2023-04-17T08:21:56.645Z,13.80
2023-04-17T08:24:23.127Z,13.80
2023-04-17T08:26:49.609Z,13.80
2023-04-17T08:29:16.222Z,13.80
2023-04-17T08:31:42.766Z,13.80
2023-04-17T08:34:14.265Z,13.80
2023-04-17T08:36:41.642Z,13.80
2023-04-17T08:39:08.115Z,13.80
2023-04-17T08:41:34.598Z,13.80
2023-04-17T08:44:01.082Z,13.80
2023-04-17T08:46:27.613Z,13.80
2023-04-17T08:48:54.108Z,13.80
2023-04-17T08:51:20.593Z,13.70
2023-04-17T08:53:47.063Z,13.70
2023-04-17T08:56:13.521Z,13.80
2023-04-17T08:58:40.009Z,13.70
2023-04-17T09:01:06.493Z,13.80
2023-04-17T09:03:33.163Z,13.80
2023-04-17T09:05:59.753Z,13.70
2023-04-17T09:08:26.294Z,13.80
2023-04-17T09:10:52.790Z,13.80
2023-04-17T09:13:19.282Z,13.80
2023-04-17T09:15:45.799Z,13.80
2023-04-17T09:18:12.407Z,13.80
2023-04-17T09:20:38.926Z,13.80
2023-04-17T09:23:05.423Z,13.80
2023-04-17T09:25:31.907Z,13.80
2023-04-17T09:27:58.400Z,13.80
2023-04-17T09:30:24.879Z,13.80
2023-04-17T09:32:51.394Z,13.80
2023-04-17T09:35:17.894Z,13.80
2023-04-17T09:37:44.382Z,13.80
2023-04-17T09:40:10.848Z,13.80
2023-04-17T09:42:37.312Z,13.80
2023-04-17T09:45:03.774Z,13.90
2023-04-17T09:47:30.265Z,13.90
2023-04-17T09:49:56.750Z,13.90
2023-04-17T09:52:23.227Z,13.90
2023-04-17T09:54:49.707Z,13.90
2023-04-17T09:57:16.180Z,13.90
2023-04-17T09:59:42.648Z,13.90
2023-04-17T10:02:09.266Z,13.90
2023-04-17T10:04:35.813Z,13.90
2023-04-17T10:07:02.285Z,13.90
2023-04-17T10:09:28.764Z,14.00
2023-04-17T10:11:55.230Z,14.00
2023-04-17T10:14:21.701Z,13.90
2023-04-17T10:16:48.274Z,13.90
2023-04-17T10:19:14.877Z,14.00
2023-04-17T10:21:41.333Z,13.90
2023-04-17T10:24:07.814Z,14.00
2023-04-17T10:26:34.267Z,14.00
2023-04-17T10:29:00.765Z,14.00
2023-04-17T10:31:27.275Z,14.00
2023-04-17T10:33:53.789Z,14.00
2023-04-17T10:36:20.254Z,14.00
2023-04-17T10:38:46.715Z,14.00
2023-04-17T10:41:13.174Z,14.00
2023-04-17T10:43:39.651Z,14.00
2023-04-17T10:46:06.171Z,14.00
2023-04-17T10:48:32.758Z,14.00
2023-04-17T10:50:59.289Z,14.00
2023-04-17T10:53:25.759Z,14.00
2023-04-17T10:55:52.253Z,14.00
2023-04-17T10:58:18.733Z,14.00
2023-04-17T11:00:45.200Z,14.00
2023-04-17T11:03:11.715Z,14.00
2023-04-17T11:05:38.233Z,14.00
2023-04-17T11:08:04.730Z,14.00
2023-04-17T11:10:31.227Z,14.00
2023-04-17T11:12:57.701Z,14.00
2023-04-17T11:15:24.170Z,14.00
2023-04-17T11:17:50.715Z,14.00
2023-04-17T11:20:17.208Z,14.10
2023-04-17T11:22:43.657Z,14.00
2023-04-17T11:25:10.133Z,14.00
2023-04-17T11:27:36.597Z,14.10
2023-04-17T11:30:03.077Z,14.10
2023-04-17T11:32:29.614Z,14.00
2023-04-17T11:34:56.112Z,14.10
2023-04-17T11:37:22.612Z,14.10
2023-04-17T11:39:49.197Z,14.00
2023-04-17T11:42:15.678Z,14.10
2023-04-17T11:44:42.156Z,14.10
2023-04-17T11:47:08.635Z,14.10
2023-04-17T11:49:35.117Z,14.10
2023-04-17T11:52:01.611Z,14.10
2023-04-17T11:54:28.123Z,14.10
2023-04-17T11:56:54.584Z,14.10
2023-04-17T11:59:21.076Z,14.10
2023-04-17T12:01:47.524Z,14.10
2023-04-17T12:04:14.334Z,14.20
2023-04-17T12:06:41.418Z,14.10
2023-04-17T12:09:07.912Z,14.10
2023-04-17T12:11:34.434Z,14.10
2023-04-17T12:14:00.964Z,14.10
2023-04-17T12:16:27.557Z,14.10
2023-04-17T12:18:54.083Z,14.10
2023-04-17T12:21:20.584Z,14.10
2023-04-17T12:23:47.067Z,14.10
2023-04-17T12:26:13.543Z,14.10
2023-04-17T12:28:40.028Z,14.10
2023-04-17T12:31:06.532Z,14.10
2023-04-17T12:33:36.015Z,14.10
2023-04-17T12:36:02.547Z,14.10
2023-04-17T12:38:29.065Z,14.10
2023-04-17T12:40:56.361Z,14.20
2023-04-17T12:43:22.828Z,14.10
2023-04-17T12:45:49.380Z,14.10
2023-04-17T12:48:15.881Z,14.20
2023-04-17T12:50:42.403Z,14.20
2023-04-17T12:53:08.930Z,14.20
2023-04-17T12:55:35.440Z,14.20
2023-04-17T12:58:01.938Z,14.20
2023-04-17T13:00:28.448Z,14.20
2023-04-17T13:02:55.061Z,14.20
2023-04-17T13:05:21.663Z,14.20
2023-04-17T13:07:48.122Z,14.20
2023-04-17T13:10:14.650Z,14.20
2023-04-17T13:12:41.115Z,14.20
2023-04-17T13:15:07.631Z,14.20
2023-04-17T13:17:34.150Z,14.20
2023-04-17T13:20:00.675Z,14.20
2023-04-17T13:22:27.164Z,14.20
2023-04-17T13:24:53.630Z,14.20
2023-04-17T13:27:20.110Z,14.20
2023-04-17T13:29:46.560Z,14.20
2023-04-17T13:32:14.383Z,14.20
2023-04-17T13:34:40.860Z,14.20
2023-04-17T13:37:07.333Z,14.20
2023-04-17T13:39:33.798Z,14.20
2023-04-17T13:42:00.273Z,14.20
2023-04-17T13:44:26.748Z,14.20
2023-04-17T13:46:53.262Z,14.20
2023-04-17T13:49:19.802Z,14.20
2023-04-17T13:51:46.283Z,14.20
2023-04-17T13:54:12.754Z,14.20
2023-04-17T13:56:39.245Z,14.20
2023-04-17T13:59:05.725Z,14.20
2023-04-17T14:01:32.261Z,14.30
2023-04-17T14:03:58.910Z,14.30
2023-04-17T14:06:25.541Z,14.30
2023-04-17T14:08:52.018Z,14.30
2023-04-17T14:11:18.503Z,14.30
2023-04-17T14:13:44.981Z,14.30
2023-04-17T14:16:11.557Z,14.30
2023-04-17T14:18:38.050Z,14.30
2023-04-17T14:21:04.519Z,14.30
2023-04-17T14:23:31.006Z,14.30
2023-04-17T14:25:57.476Z,14.30
2023-04-17T14:28:23.964Z,14.30
2023-04-17T14:30:50.434Z,14.30
2023-04-17T14:33:16.915Z,14.30
2023-04-17T14:35:43.377Z,14.30
2023-04-17T14:38:09.837Z,14.30
2023-04-17T14:40:36.342Z,14.30
2023-04-17T14:43:02.801Z,14.30
2023-04-17T14:45:29.267Z,14.40
2023-04-17T14:47:55.747Z,14.30
2023-04-17T14:50:22.226Z,14.30
2023-04-17T14:52:48.719Z,14.30
2023-04-17T14:55:15.195Z,14.30
2023-04-17T14:57:41.686Z,14.30
2023-04-17T15:00:08.156Z,14.30
2023-04-17T15:02:34.717Z,14.30
2023-04-17T15:05:01.264Z,14.40
2023-04-17T15:07:27.745Z,14.40
2023-04-17T15:09:56.319Z,14.40
2023-04-17T15:12:22.960Z,14.40
2023-04-17T15:14:49.438Z,14.40
2023-04-17T15:17:15.957Z,14.40
2023-04-17T15:19:42.421Z,14.40
2023-04-17T15:22:08.912Z,14.40
2023-04-17T15:24:35.353Z,14.40
2023-04-17T15:27:01.828Z,14.40
2023-04-17T15:29:28.306Z,14.40
2023-04-17T15:31:54.855Z,14.40
2023-04-17T15:34:26.694Z,14.40
2023-04-17T15:36:53.167Z,14.40
2023-04-17T15:39:19.692Z,14.40
2023-04-17T15:41:46.382Z,14.40
2023-04-17T15:44:12.904Z,14.40
2023-04-17T15:46:39.536Z,14.40
2023-04-17T15:49:09.137Z,14.40
2023-04-17T15:51:35.931Z,14.40
2023-04-17T15:54:02.427Z,14.40
2023-04-17T15:56:28.909Z,14.40
2023-04-17T15:58:55.392Z,14.40
2023-04-17T16:01:21.990Z,14.40
2023-04-17T16:03:48.649Z,14.40
2023-04-17T16:06:15.243Z,14.50
2023-04-17T16:08:41.715Z,14.40
2023-04-17T16:11:08.181Z,14.40
2023-04-17T16:13:34.679Z,14.40
2023-04-17T16:16:01.204Z,14.40
2023-04-17T16:18:27.752Z,14.50
2023-04-17T16:20:54.242Z,14.50
2023-04-17T16:23:20.714Z,14.50
2023-04-17T16:25:47.179Z,14.50
2023-04-17T16:28:14.527Z,14.50
2023-04-17T16:30:40.998Z,14.50
2023-04-17T16:33:07.461Z,14.50
2023-04-17T16:35:33.908Z,14.60
2023-04-17T16:38:00.404Z,14.70
2023-04-17T16:40:26.848Z,14.70
2023-04-17T16:42:53.321Z,14.80
2023-04-17T16:45:19.800Z,14.80
2023-04-17T16:47:46.370Z,14.80
2023-04-17T16:50:12.975Z,14.80
2023-04-17T16:52:39.495Z,14.90
2023-04-17T16:55:05.983Z,14.80
2023-04-17T16:57:32.457Z,14.80
2023-04-17T16:59:58.947Z,14.80
2023-04-17T17:02:25.463Z,14.80
2023-04-17T17:04:52.055Z,14.80
2023-04-17T17:07:18.576Z,14.80
2023-04-17T17:09:45.049Z,14.80
2023-04-17T17:12:11.541Z,14.80
2023-04-17T17:14:38.004Z,14.80
2023-04-17T17:17:04.488Z,14.80
2023-04-17T17:19:30.963Z,14.80
2023-04-17T17:21:57.430Z,14.70
2023-04-17T17:24:26.589Z,14.80
2023-04-17T17:26:53.062Z,14.70
2023-04-17T17:29:19.533Z,14.80
2023-04-17T17:31:46.057Z,14.70
2023-04-17T17:36:42.007Z,14.70
2023-04-17T17:39:08.498Z,14.70
2023-04-17T17:41:34.964Z,14.70
2023-04-17T17:44:01.444Z,14.70
2023-04-17T17:46:27.960Z,14.70
2023-04-17T17:48:54.537Z,14.70
2023-04-17T17:51:21.012Z,14.70
2023-04-17T17:53:47.517Z,14.70
2023-04-17T17:56:14.004Z,14.70
2023-04-17T17:58:40.502Z,14.70
2023-04-17T18:01:07.033Z,14.60
2023-04-17T18:03:33.696Z,14.70
2023-04-17T18:06:00.268Z,14.60
2023-04-17T18:08:26.769Z,14.60
2023-04-17T18:10:53.233Z,14.60
2023-04-17T18:13:20.611Z,14.60
2023-04-17T18:15:47.102Z,14.60
2023-04-17T18:18:13.605Z,14.60
2023-04-17T18:20:40.072Z,14.60
2023-04-17T18:23:06.553Z,14.60
2023-04-17T18:25:33.030Z,14.60
2023-04-17T18:27:59.497Z,14.60
2023-04-17T18:30:26.000Z,14.60
2023-04-17T18:32:52.493Z,14.60
2023-04-17T18:35:19.014Z,14.60
2023-04-17T18:37:45.492Z,14.50
2023-04-17T18:40:11.965Z,14.60
2023-04-17T18:42:38.414Z,14.50
2023-04-17T18:45:04.944Z,14.60
2023-04-17T18:47:31.469Z,14.60
2023-04-17T18:49:57.939Z,14.50
2023-04-17T18:52:24.418Z,14.50
2023-04-17T18:54:50.909Z,14.50
2023-04-17T18:57:17.391Z,14.50
2023-04-17T18:59:43.883Z,14.50
2023-04-17T19:02:10.426Z,14.50
2023-04-17T19:04:36.968Z,14.50
2023-04-17T19:07:03.431Z,14.50
2023-04-17T19:09:29.910Z,14.50
2023-04-17T19:11:56.374Z,14.50
2023-04-17T19:14:22.838Z,14.50
2023-04-17T19:16:49.431Z,14.50
2023-04-17T19:19:16.103Z,14.50
2023-04-17T19:21:42.591Z,14.50
2023-04-17T19:24:09.119Z,14.40
2023-04-17T19:26:35.592Z,14.50
2023-04-17T19:29:02.118Z,14.40
2023-04-17T19:31:28.656Z,14.40
2023-04-17T19:33:55.199Z,14.50
2023-04-17T19:36:21.694Z,14.40
2023-04-17T19:38:48.212Z,14.40
2023-04-17T19:41:15.030Z,14.50
2023-04-17T19:43:41.684Z,14.40
2023-04-17T19:46:08.163Z,14.50
2023-04-17T19:48:34.654Z,14.40
2023-04-17T19:51:01.122Z,14.40
2023-04-17T19:53:27.608Z,14.40
2023-04-17T19:55:54.091Z,14.40
2023-04-17T19:58:20.568Z,14.40
2023-04-17T20:00:47.128Z,14.40
2023-04-17T20:03:13.826Z,14.40
2023-04-17T20:05:44.706Z,14.40
2023-04-17T20:08:11.203Z,14.40
2023-04-17T20:10:37.665Z,14.40
2023-04-17T20:13:04.162Z,14.40
2023-04-17T20:15:32.742Z,14.40
2023-04-17T20:18:02.771Z,14.40
2023-04-17T20:20:33.193Z,14.50
2023-04-17T20:23:00.631Z,14.40
2023-04-17T20:25:27.131Z,14.40
2023-04-17T20:27:53.585Z,14.40
2023-04-17T20:30:20.047Z,14.40
2023-04-17T20:32:46.563Z,14.40
2023-04-17T20:35:13.105Z,14.40
2023-04-17T20:37:39.556Z,14.40
2023-04-17T20:40:06.043Z,14.40
2023-04-17T20:42:32.692Z,14.30
2023-04-17T20:44:59.198Z,14.40
2023-04-17T20:47:25.785Z,14.30
2023-04-17T20:49:52.329Z,14.30
2023-04-17T20:52:18.792Z,14.30
2023-04-17T20:54:45.272Z,14.30
2023-04-17T20:57:11.764Z,14.30
2023-04-17T20:59:38.259Z,14.30
2023-04-17T21:02:04.817Z,14.30
2023-04-17T21:04:31.385Z,14.30
2023-04-17T21:06:58.341Z,14.30
2023-04-17T21:09:24.814Z,14.30
2023-04-17T21:11:51.274Z,14.30
2023-04-17T21:14:17.722Z,14.30
2023-04-17T21:16:44.191Z,14.30
2023-04-17T21:19:10.649Z,14.30
2023-04-17T21:21:37.103Z,14.30
2023-04-17T21:24:03.554Z,14.30
2023-04-17T21:26:30.007Z,14.30
2023-04-17T21:28:56.473Z,14.30
2023-04-17T21:31:22.985Z,14.30
2023-04-17T21:33:49.489Z,14.30
2023-04-17T21:36:15.962Z,14.30
2023-04-17T21:38:42.428Z,14.30
2023-04-17T21:41:08.910Z,14.30
2023-04-17T21:43:35.380Z,14.30
2023-04-17T21:46:01.874Z,14.20
2023-04-17T21:48:28.423Z,14.20
2023-04-17T21:50:54.898Z,14.20
2023-04-17T21:53:21.377Z,14.20
2023-04-17T21:55:47.884Z,14.20
2023-04-17T21:58:14.340Z,14.20
2023-04-17T22:00:40.936Z,14.20
2023-04-17T22:03:07.461Z,14.20
2023-04-17T22:05:34.019Z,14.20
2023-04-17T22:08:00.506Z,14.20
2023-04-17T22:10:27.009Z,14.20
2023-04-17T22:12:53.470Z,14.20
2023-04-17T22:15:19.961Z,14.20
2023-04-17T22:17:46.604Z,14.20
2023-04-17T22:20:13.253Z,14.10
2023-04-17T22:22:39.730Z,14.20
2023-04-17T22:25:06.216Z,14.20
2023-04-17T22:27:32.674Z,14.20
2023-04-17T22:29:59.183Z,14.10
2023-04-17T22:32:25.691Z,14.10
2023-04-17T22:34:52.282Z,14.10
2023-04-17T22:37:18.770Z,14.10
2023-04-17T22:39:45.248Z,14.10
2023-04-17T22:42:11.713Z,14.10
2023-04-17T22:44:38.194Z,14.10
2023-04-17T22:47:04.684Z,14.10
2023-04-17T22:49:31.136Z,14.10
2023-04-17T22:51:57.603Z,14.10
2023-04-17T22:54:25.258Z,14.10
2023-04-17T22:56:51.896Z,14.10
2023-04-17T22:59:18.373Z,14.10
2023-04-17T23:01:44.892Z,14.10
2023-04-17T23:04:15.201Z,14.10
2023-04-17T23:06:41.859Z,14.00
2023-04-17T23:09:08.324Z,14.00
2023-04-17T23:11:34.784Z,14.10
2023-04-17T23:14:01.244Z,14.00
2023-04-17T23:16:27.725Z,14.10
2023-04-17T23:18:56.833Z,14.10
2023-04-17T23:21:23.333Z,14.10
2023-04-17T23:23:49.842Z,14.00
2023-04-17T23:26:16.314Z,14.10
2023-04-17T23:28:42.803Z,14.00
2023-04-17T23:31:09.277Z,14.00
2023-04-17T23:33:35.834Z,14.00
2023-04-17T23:36:02.317Z,14.00
2023-04-17T23:38:28.789Z,14.00
2023-04-17T23:40:55.282Z,14.00
2023-04-17T23:43:21.753Z,14.00
2023-04-17T23:45:48.263Z,14.00
2023-04-17T23:48:14.729Z,14.00
2023-04-17T23:50:41.203Z,14.00
2023-04-17T23:53:07.690Z,13.90
2023-04-17T23:55:34.151Z,14.00
2023-04-17T23:58:00.633Z,13.90
